sensor_id;sensor_type;location;lat;lon;timestamp;pressure;altitude;pressure_sealevel;temperature;humidity
68376;BME280;55318;52.068;5.188;2023-02-13T00:01:56;103832.0;;;9.23;76.94
68376;BME280;55318;52.068;5.188;2023-02-13T00:03:33;103830.0;;;9.19;77.48
68376;BME280;55318;52.068;5.188;2023-02-13T00:05:10;103832.0;;;9.14;77.36
68376;BME280;55318;52.068;5.188;2023-02-13T00:08:24;103828.0;;;9.03;77.44
68376;BME280;55318;52.068;5.188;2023-02-13T00:10:00;103830.0;;;9.02;78.14
68376;BME280;55318;52.068;5.188;2023-02-13T00:11:37;103826.0;;;8.99;78.61
68376;BME280;55318;52.068;5.188;2023-02-13T00:14:52;103823.0;;;9.0;78.95
68376;BME280;55318;52.068;5.188;2023-02-13T00:16:29;103823.0;;;9.06;78.02
68376;BME280;55318;52.068;5.188;2023-02-13T00:18:05;103824.0;;;9.14;77.39
68376;BME280;55318;52.068;5.188;2023-02-13T00:19:42;103823.0;;;9.05;77.72
68376;BME280;55318;52.068;5.188;2023-02-13T00:22:57;103821.0;;;9.03;77.41
68376;BME280;55318;52.068;5.188;2023-02-13T00:24:33;103815.00000000001;;;9.11;77.66
68376;BME280;55318;52.068;5.188;2023-02-13T00:26:12;103816.00000000001;;;9.18;77.44
68376;BME280;55318;52.068;5.188;2023-02-13T00:29:29;103817.0;;;9.17;77.55
68376;BME280;55318;52.068;5.188;2023-02-13T00:31:07;103817.0;;;9.28;76.95
68376;BME280;55318;52.068;5.188;2023-02-13T00:32:44;103815.00000000001;;;9.24;76.83
68376;BME280;55318;52.068;5.188;2023-02-13T00:34:22;103815.00000000001;;;9.19;76.99
68376;BME280;55318;52.068;5.188;2023-02-13T00:37:41;103816.00000000001;;;9.22;77.22
68376;BME280;55318;52.068;5.188;2023-02-13T00:39:17;103808.0;;;9.11;77.3
68376;BME280;55318;52.068;5.188;2023-02-13T00:40:54;103806.0;;;9.14;76.89
68376;BME280;55318;52.068;5.188;2023-02-13T00:44:08;103808.0;;;9.26;76.83
68376;BME280;55318;52.068;5.188;2023-02-13T00:45:45;103809.99999999999;;;9.3;76.99
68376;BME280;55318;52.068;5.188;2023-02-13T00:47:21;103808.99999999999;;;9.24;77.41
68376;BME280;55318;52.068;5.188;2023-02-13T00:48:57;103817.0;;;9.18;77.22
68376;BME280;55318;52.068;5.188;2023-02-13T00:52:11;103813.00000000001;;;9.23;77.06
68376;BME280;55318;52.068;5.188;2023-02-13T00:53:48;103811.99999999999;;;9.13;77.39
68376;BME280;55318;52.068;5.188;2023-02-13T00:55:25;103808.99999999999;;;9.15;77.09
68376;BME280;55318;52.068;5.188;2023-02-13T00:58:39;103808.99999999999;;;9.11;77.63
68376;BME280;55318;52.068;5.188;2023-02-13T01:00:16;103807.0;;;9.24;76.89
68376;BME280;55318;52.068;5.188;2023-02-13T01:01:52;103804.0;;;9.18;76.83
68376;BME280;55318;52.068;5.188;2023-02-13T01:03:30;103806.0;;;9.07;77.87
68376;BME280;55318;52.068;5.188;2023-02-13T01:06:44;103805.0;;;9.09;77.11
68376;BME280;55318;52.068;5.188;2023-02-13T01:08:20;103807.0;;;9.14;77.47
68376;BME280;55318;52.068;5.188;2023-02-13T01:09:56;103807.0;;;9.14;77.28
68376;BME280;55318;52.068;5.188;2023-02-13T01:13:11;103807.0;;;9.1;77.17
68376;BME280;55318;52.068;5.188;2023-02-13T01:14:49;103806.0;;;9.14;77.3
68376;BME280;55318;52.068;5.188;2023-02-13T01:16:26;103804.0;;;9.23;77.14
68376;BME280;55318;52.068;5.188;2023-02-13T01:19:40;103802.0;;;9.16;77.42
68376;BME280;55318;52.068;5.188;2023-02-13T01:21:19;103798.0;;;9.08;79.23
68376;BME280;55318;52.068;5.188;2023-02-13T01:22:57;103796.0;;;9.11;78.33
68376;BME280;55318;52.068;5.188;2023-02-13T01:24:34;103798.0;;;9.07;77.84
68376;BME280;55318;52.068;5.188;2023-02-13T01:27:54;103793.0;;;9.1;77.17
68376;BME280;55318;52.068;5.188;2023-02-13T01:29:30;103793.0;;;9.07;77.23
68376;BME280;55318;52.068;5.188;2023-02-13T01:31:08;103797.0;;;9.1;77.58
68376;BME280;55318;52.068;5.188;2023-02-13T01:34:23;103795.0;;;9.19;76.91
68376;BME280;55318;52.068;5.188;2023-02-13T01:36:06;103792.0;;;9.14;77.0
68376;BME280;55318;52.068;5.188;2023-02-13T01:37:42;103790.00000000001;;;9.17;76.47
68376;BME280;55318;52.068;5.188;2023-02-13T01:39:19;103792.0;;;8.98;77.28
68376;BME280;55318;52.068;5.188;2023-02-13T01:42:33;103793.0;;;8.93;77.8
68376;BME280;55318;52.068;5.188;2023-02-13T01:45:29;103794.0;;;9.02;78.08
68376;BME280;55318;52.068;5.188;2023-02-13T01:47:07;103793.0;;;9.13;77.5
68376;BME280;55318;52.068;5.188;2023-02-13T01:48:45;103792.0;;;9.03;77.55
68376;BME280;55318;52.068;5.188;2023-02-13T01:50:29;103792.0;;;8.99;77.27
68376;BME280;55318;52.068;5.188;2023-02-13T01:52:08;103791.00000000001;;;9.07;77.27
68376;BME280;55318;52.068;5.188;2023-02-13T01:53:48;103788.00000000001;;;9.15;77.02
68376;BME280;55318;52.068;5.188;2023-02-13T01:57:10;103781.0;;;9.06;77.3
68376;BME280;55318;52.068;5.188;2023-02-13T01:58:53;103777.0;;;9.16;76.86
68376;BME280;55318;52.068;5.188;2023-02-13T02:00:36;103776.0;;;9.14;76.95
68376;BME280;55318;52.068;5.188;2023-02-13T02:02:14;103775.0;;;9.23;76.44
68376;BME280;55318;52.068;5.188;2023-02-13T02:05:34;103779.0;;;9.23;76.66
68376;BME280;55318;52.068;5.188;2023-02-13T02:07:14;103772.0;;;9.35;76.19
68376;BME280;55318;52.068;5.188;2023-02-13T02:09:02;103778.0;;;9.11;76.88
68376;BME280;55318;52.068;5.188;2023-02-13T02:10:40;103780.0;;;9.01;77.66
68376;BME280;55318;52.068;5.188;2023-02-13T02:14:02;103777.0;;;9.13;77.45
68376;BME280;55318;52.068;5.188;2023-02-13T02:15:40;103778.0;;;9.03;77.41
68376;BME280;55318;52.068;5.188;2023-02-13T02:17:18;103779.0;;;9.01;77.49
68376;BME280;55318;52.068;5.188;2023-02-13T02:18:57;103777.0;;;9.05;77.44
68376;BME280;55318;52.068;5.188;2023-02-13T02:23:28;103782.0;;;9.06;77.28
68376;BME280;55318;52.068;5.188;2023-02-13T02:27:10;103788.00000000001;;;9.11;77.59
68376;BME280;55318;52.068;5.188;2023-02-13T02:34:21;103778.0;;;9.02;78.3
68376;BME280;55318;52.068;5.188;2023-02-13T02:36:15;103780.0;;;8.96;78.7
68376;BME280;55318;52.068;5.188;2023-02-13T02:38:13;103777.0;;;8.92;78.25
68376;BME280;55318;52.068;5.188;2023-02-13T02:40:20;103777.0;;;9.01;78.02
68376;BME280;55318;52.068;5.188;2023-02-13T02:42:09;103774.0;;;9.02;77.98
68376;BME280;55318;52.068;5.188;2023-02-13T02:45:47;103771.0;;;9.11;77.72
68376;BME280;55318;52.068;5.188;2023-02-13T02:50:13;103772.0;;;9.08;77.61
68376;BME280;55318;52.068;5.188;2023-02-13T02:51:59;103774.0;;;9.08;77.88
68376;BME280;55318;52.068;5.188;2023-02-13T02:53:43;103769.0;;;9.19;77.61
68376;BME280;55318;52.068;5.188;2023-02-13T02:55:34;103769.0;;;9.02;77.94
68376;BME280;55318;52.068;5.188;2023-02-13T02:57:14;103767.0;;;9.02;78.16
68376;BME280;55318;52.068;5.188;2023-02-13T03:07:17;103758.0;;;9.08;78.0
68376;BME280;55318;52.068;5.188;2023-02-13T03:13:34;103766.00000000001;;;8.97;78.55
68376;BME280;55318;52.068;5.188;2023-02-13T03:15:16;103763.00000000001;;;8.85;78.83
68376;BME280;55318;52.068;5.188;2023-02-13T03:22:29;103769.0;;;8.91;78.95
68376;BME280;55318;52.068;5.188;2023-02-13T03:24:16;103773.0;;;8.91;78.73
68376;BME280;55318;52.068;5.188;2023-02-13T03:26:31;103770.0;;;8.94;79.0
68376;BME280;55318;52.068;5.188;2023-02-13T03:30:39;103770.0;;;8.81;79.3
68376;BME280;55318;52.068;5.188;2023-02-13T03:32:39;103776.0;;;8.88;79.39
68376;BME280;55318;52.068;5.188;2023-02-13T03:34:23;103774.0;;;8.91;79.19
68376;BME280;55318;52.068;5.188;2023-02-13T03:40:12;103770.0;;;9.02;78.8
68376;BME280;55318;52.068;5.188;2023-02-13T03:41:57;103773.0;;;8.93;79.23
68376;BME280;55318;52.068;5.188;2023-02-13T03:43:40;103770.0;;;8.92;79.12
68376;BME280;55318;52.068;5.188;2023-02-13T03:45:53;103771.0;;;8.93;79.36
68376;BME280;55318;52.068;5.188;2023-02-13T03:47:31;103771.0;;;8.81;79.94
68376;BME280;55318;52.068;5.188;2023-02-13T03:50:14;103772.0;;;8.83;79.5
68376;BME280;55318;52.068;5.188;2023-02-13T03:51:55;103773.0;;;8.97;79.33
68376;BME280;55318;52.068;5.188;2023-02-13T03:53:35;103771.0;;;8.98;78.86
68376;BME280;55318;52.068;5.188;2023-02-13T03:59:28;103767.0;;;8.99;79.03
68376;BME280;55318;52.068;5.188;2023-02-13T04:02:53;103765.00000000001;;;9.06;78.78
68376;BME280;55318;52.068;5.188;2023-02-13T04:04:39;103765.00000000001;;;9.07;78.52
68376;BME280;55318;52.068;5.188;2023-02-13T04:06:21;103761.99999999999;;;9.06;78.98
68376;BME280;55318;52.068;5.188;2023-02-13T04:08:02;103759.99999999999;;;8.98;79.0
68376;BME280;55318;52.068;5.188;2023-02-13T04:09:41;103758.99999999999;;;8.98;79.08
68376;BME280;55318;52.068;5.188;2023-02-13T04:13:08;103761.99999999999;;;9.05;79.27
68376;BME280;55318;52.068;5.188;2023-02-13T04:14:56;103765.00000000001;;;9.05;79.05
68376;BME280;55318;52.068;5.188;2023-02-13T04:16:36;103764.00000000001;;;8.89;79.34
68376;BME280;55318;52.068;5.188;2023-02-13T04:18:18;103759.99999999999;;;8.89;79.44
68376;BME280;55318;52.068;5.188;2023-02-13T04:21:36;103758.0;;;8.86;79.72
68376;BME280;55318;52.068;5.188;2023-02-13T04:23:14;103757.0;;;8.89;79.39
68376;BME280;55318;52.068;5.188;2023-02-13T04:24:52;103756.0;;;8.92;79.7
68376;BME280;55318;52.068;5.188;2023-02-13T04:26:33;103757.0;;;8.98;79.44
68376;BME280;55318;52.068;5.188;2023-02-13T04:29:47;103759.99999999999;;;8.97;79.7
68376;BME280;55318;52.068;5.188;2023-02-13T04:31:23;103757.0;;;8.96;79.55
68376;BME280;55318;52.068;5.188;2023-02-13T04:32:59;103761.99999999999;;;8.94;79.56
68376;BME280;55318;52.068;5.188;2023-02-13T04:36:13;103761.99999999999;;;8.92;79.73
68376;BME280;55318;52.068;5.188;2023-02-13T04:37:49;103764.00000000001;;;8.99;79.27
68376;BME280;55318;52.068;5.188;2023-02-13T04:39:25;103763.00000000001;;;8.89;80.19
68376;BME280;55318;52.068;5.188;2023-02-13T04:42:37;103756.0;;;8.81;80.33
68376;BME280;55318;52.068;5.188;2023-02-13T04:44:13;103755.0;;;8.89;80.11
68376;BME280;55318;52.068;5.188;2023-02-13T04:45:50;103753.0;;;8.96;79.78
68376;BME280;55318;52.068;5.188;2023-02-13T04:47:27;103748.0;;;9.03;79.47
68376;BME280;55318;52.068;5.188;2023-02-13T04:50:39;103745.0;;;9.0;79.66
68376;BME280;55318;52.068;5.188;2023-02-13T04:52:15;103748.0;;;8.92;79.92
68376;BME280;55318;52.068;5.188;2023-02-13T04:53:51;103749.0;;;8.96;80.13
68376;BME280;55318;52.068;5.188;2023-02-13T04:57:05;103747.0;;;9.05;79.77
68376;BME280;55318;52.068;5.188;2023-02-13T04:58:41;103741.00000000001;;;9.22;79.16
68376;BME280;55318;52.068;5.188;2023-02-13T05:00:19;103741.00000000001;;;9.16;79.2
68376;BME280;55318;52.068;5.188;2023-02-13T05:03:31;103733.99999999999;;;9.16;79.3
68376;BME280;55318;52.068;5.188;2023-02-13T05:05:08;103731.0;;;9.01;79.98
68376;BME280;55318;52.068;5.188;2023-02-13T05:06:44;103731.0;;;9.19;79.44
68376;BME280;55318;52.068;5.188;2023-02-13T05:08:20;103724.0;;;9.02;80.05
68376;BME280;55318;52.068;5.188;2023-02-13T05:11:32;103731.0;;;8.98;80.36
68376;BME280;55318;52.068;5.188;2023-02-13T05:13:08;103733.0;;;8.84;81.0
68376;BME280;55318;52.068;5.188;2023-02-13T05:14:45;103726.0;;;8.98;80.7
68376;BME280;55318;52.068;5.188;2023-02-13T05:17:57;103724.0;;;8.97;80.72
68376;BME280;55318;52.068;5.188;2023-02-13T05:19:33;103729.0;;;8.88;81.06
68376;BME280;55318;52.068;5.188;2023-02-13T05:23:31;103727.0;;;8.97;80.69
68376;BME280;55318;52.068;5.188;2023-02-13T05:25:08;103724.0;;;8.86;81.36
68376;BME280;55318;52.068;5.188;2023-02-13T05:29:24;103721.0;;;8.83;81.45
68376;BME280;55318;52.068;5.188;2023-02-13T05:31:01;103718.0;;;8.93;81.03
68376;BME280;55318;52.068;5.188;2023-02-13T05:32:37;103720.0;;;8.98;80.87
68376;BME280;55318;52.068;5.188;2023-02-13T05:34:14;103725.0;;;8.91;81.03
68376;BME280;55318;52.068;5.188;2023-02-13T05:35:51;103720.0;;;8.99;80.97
68376;BME280;55318;52.068;5.188;2023-02-13T05:39:03;103719.0;;;8.97;81.08
68376;BME280;55318;52.068;5.188;2023-02-13T05:40:39;103720.0;;;9.05;80.99
68376;BME280;55318;52.068;5.188;2023-02-13T05:42:15;103725.0;;;8.9;81.41
68376;BME280;55318;52.068;5.188;2023-02-13T05:43:51;103722.0;;;8.92;81.44
68376;BME280;55318;52.068;5.188;2023-02-13T05:47:04;103722.0;;;8.93;81.49
68376;BME280;55318;52.068;5.188;2023-02-13T05:48:40;103720.0;;;8.9;81.72
68376;BME280;55318;52.068;5.188;2023-02-13T05:50:16;103719.0;;;8.82;81.96
68376;BME280;55318;52.068;5.188;2023-02-13T05:53:28;103727.0;;;8.73;82.58
68376;BME280;55318;52.068;5.188;2023-02-13T05:55:05;103725.0;;;8.78;82.3
68376;BME280;55318;52.068;5.188;2023-02-13T05:56:42;103731.0;;;8.86;82.33
68376;BME280;55318;52.068;5.188;2023-02-13T05:59:56;103727.0;;;8.76;82.49
68376;BME280;55318;52.068;5.188;2023-02-13T06:01:32;103729.0;;;8.81;82.6
68376;BME280;55318;52.068;5.188;2023-02-13T06:03:09;103723.0;;;8.9;82.48
68376;BME280;55318;52.068;5.188;2023-02-13T06:04:45;103728.0;;;8.89;82.48
68376;BME280;55318;52.068;5.188;2023-02-13T06:07:58;103727.0;;;8.91;82.09
68376;BME280;55318;52.068;5.188;2023-02-13T06:09:34;103730.0;;;8.89;82.2
68376;BME280;55318;52.068;5.188;2023-02-13T06:11:10;103726.0;;;8.98;82.17
68376;BME280;55318;52.068;5.188;2023-02-13T06:14:22;103727.0;;;8.91;82.18
68376;BME280;55318;52.068;5.188;2023-02-13T06:15:59;103728.0;;;8.88;82.66
68376;BME280;55318;52.068;5.188;2023-02-13T06:17:35;103727.0;;;8.9;82.45
68376;BME280;55318;52.068;5.188;2023-02-13T06:20:47;103733.99999999999;;;8.83;82.54
68376;BME280;55318;52.068;5.188;2023-02-13T06:22:23;103729.0;;;8.85;82.95
68376;BME280;55318;52.068;5.188;2023-02-13T06:23:59;103726.0;;;8.99;82.63
68376;BME280;55318;52.068;5.188;2023-02-13T06:27:13;103727.0;;;8.91;82.61
68376;BME280;55318;52.068;5.188;2023-02-13T06:28:49;103736.99999999999;;;8.89;82.94
68376;BME280;55318;52.068;5.188;2023-02-13T06:30:25;103738.00000000001;;;8.96;82.52
68376;BME280;55318;52.068;5.188;2023-02-13T06:32:02;103739.00000000001;;;8.86;82.67
68376;BME280;55318;52.068;5.188;2023-02-13T06:35:15;103738.00000000001;;;8.81;82.66
68376;BME280;55318;52.068;5.188;2023-02-13T06:36:52;103734.99999999999;;;8.89;82.29
68376;BME280;55318;52.068;5.188;2023-02-13T06:38:28;103736.99999999999;;;8.81;82.88
68376;BME280;55318;52.068;5.188;2023-02-13T06:41:42;103739.00000000001;;;8.82;82.7
68376;BME280;55318;52.068;5.188;2023-02-13T06:43:19;103730.0;;;8.81;82.71
68376;BME280;55318;52.068;5.188;2023-02-13T06:44:55;103734.99999999999;;;8.81;83.01
68376;BME280;55318;52.068;5.188;2023-02-13T06:48:08;103736.99999999999;;;8.83;82.95
68376;BME280;55318;52.068;5.188;2023-02-13T06:49:43;103734.99999999999;;;8.75;83.0
68376;BME280;55318;52.068;5.188;2023-02-13T06:51:19;103733.0;;;8.82;82.84
68376;BME280;55318;52.068;5.188;2023-02-13T06:56:08;103734.99999999999;;;8.72;82.95
68376;BME280;55318;52.068;5.188;2023-02-13T06:57:46;103732.0;;;8.8;82.78
68376;BME280;55318;52.068;5.188;2023-02-13T06:59:22;103736.99999999999;;;8.72;82.84
68376;BME280;55318;52.068;5.188;2023-02-13T07:02:36;103736.99999999999;;;8.59;83.84
68376;BME280;55318;52.068;5.188;2023-02-13T07:04:12;103738.00000000001;;;8.53;84.04
68376;BME280;55318;52.068;5.188;2023-02-13T07:05:51;103733.99999999999;;;8.59;83.68
68376;BME280;55318;52.068;5.188;2023-02-13T07:09:08;103731.0;;;8.52;83.44
68376;BME280;55318;52.068;5.188;2023-02-13T07:10:44;103731.0;;;8.44;83.66
68376;BME280;55318;52.068;5.188;2023-02-13T07:12:20;103736.99999999999;;;8.39;84.17
68376;BME280;55318;52.068;5.188;2023-02-13T07:13:56;103733.0;;;8.32;84.29
68376;BME280;55318;52.068;5.188;2023-02-13T07:17:10;103733.0;;;8.41;84.21
68376;BME280;55318;52.068;5.188;2023-02-13T07:18:47;103739.00000000001;;;8.31;84.44
68376;BME280;55318;52.068;5.188;2023-02-13T07:20:23;103742.0;;;8.23;84.69
68376;BME280;55318;52.068;5.188;2023-02-13T07:23:36;103742.0;;;8.24;84.93
68376;BME280;55318;52.068;5.188;2023-02-13T07:25:12;103741.00000000001;;;8.19;85.22
68376;BME280;55318;52.068;5.188;2023-02-13T07:26:48;103738.00000000001;;;8.25;84.97
68376;BME280;55318;52.068;5.188;2023-02-13T07:28:25;103733.99999999999;;;8.14;85.43
68376;BME280;55318;52.068;5.188;2023-02-13T07:31:39;103738.00000000001;;;8.11;85.79
68376;BME280;55318;52.068;5.188;2023-02-13T07:33:15;103740.00000000001;;;8.15;85.82
68376;BME280;55318;52.068;5.188;2023-02-13T07:34:51;103741.00000000001;;;8.05;86.11
68376;BME280;55318;52.068;5.188;2023-02-13T07:38:03;103743.0;;;8.0;86.49
68376;BME280;55318;52.068;5.188;2023-02-13T07:39:40;103744.0;;;8.08;86.28
68376;BME280;55318;52.068;5.188;2023-02-13T07:41:17;103746.0;;;8.06;86.62
68376;BME280;55318;52.068;5.188;2023-02-13T07:44:29;103749.0;;;8.13;86.93
68376;BME280;55318;52.068;5.188;2023-02-13T07:46:05;103754.0;;;8.22;86.67
68376;BME280;55318;52.068;5.188;2023-02-13T07:47:42;103757.0;;;8.24;86.58
68376;BME280;55318;52.068;5.188;2023-02-13T07:50:58;103758.0;;;8.36;86.24
68376;BME280;55318;52.068;5.188;2023-02-13T07:52:36;103764.00000000001;;;8.48;85.81
68376;BME280;55318;52.068;5.188;2023-02-13T07:54:12;103764.00000000001;;;8.47;85.93
68376;BME280;55318;52.068;5.188;2023-02-13T07:55:49;103769.0;;;8.58;85.93
68376;BME280;55318;52.068;5.188;2023-02-13T07:59:02;103767.0;;;8.8;85.48
68376;BME280;55318;52.068;5.188;2023-02-13T08:00:38;103772.0;;;8.92;84.6
68376;BME280;55318;52.068;5.188;2023-02-13T08:02:14;103776.0;;;8.96;84.41
68376;BME280;55318;52.068;5.188;2023-02-13T08:05:28;103779.0;;;8.99;84.35
68376;BME280;55318;52.068;5.188;2023-02-13T08:07:05;103777.0;;;9.16;83.91
68376;BME280;55318;52.068;5.188;2023-02-13T08:08:41;103784.99999999999;;;9.31;83.37
68376;BME280;55318;52.068;5.188;2023-02-13T08:12:08;103783.99999999999;;;9.39;83.31
68376;BME280;55318;52.068;5.188;2023-02-13T08:13:52;103783.99999999999;;;9.57;82.8
68376;BME280;55318;52.068;5.188;2023-02-13T08:15:28;103781.0;;;9.59;81.59
68376;BME280;55318;52.068;5.188;2023-02-13T08:17:04;103782.0;;;9.8;82.17
68376;BME280;55318;52.068;5.188;2023-02-13T08:18:40;103780.0;;;10.0;81.08
68376;BME280;55318;52.068;5.188;2023-02-13T08:21:54;103780.0;;;10.17;80.86
68376;BME280;55318;52.068;5.188;2023-02-13T08:23:30;103783.0;;;10.47;78.94
68376;BME280;55318;52.068;5.188;2023-02-13T08:25:07;103784.99999999999;;;10.45;79.36
68376;BME280;55318;52.068;5.188;2023-02-13T08:28:19;103779.0;;;10.64;78.64
68376;BME280;55318;52.068;5.188;2023-02-13T08:29:56;103781.0;;;10.78;78.11
68376;BME280;55318;52.068;5.188;2023-02-13T08:31:33;103778.0;;;10.88;76.97
68376;BME280;55318;52.068;5.188;2023-02-13T08:34:45;103778.0;;;10.92;77.0
68376;BME280;55318;52.068;5.188;2023-02-13T08:36:21;103778.0;;;11.01;76.52
68376;BME280;55318;52.068;5.188;2023-02-13T08:38:01;103781.0;;;11.12;76.3
68376;BME280;55318;52.068;5.188;2023-02-13T08:39:37;103781.0;;;11.3;75.81
68376;BME280;55318;52.068;5.188;2023-02-13T08:42:51;103783.99999999999;;;11.34;75.38
68376;BME280;55318;52.068;5.188;2023-02-13T08:44:27;103783.99999999999;;;11.49;75.67
68376;BME280;55318;52.068;5.188;2023-02-13T08:46:04;103779.0;;;11.67;75.44
68376;BME280;55318;52.068;5.188;2023-02-13T08:49:16;103779.0;;;11.73;74.25
68376;BME280;55318;52.068;5.188;2023-02-13T08:50:52;103781.0;;;11.96;74.72
68376;BME280;55318;52.068;5.188;2023-02-13T08:52:29;103777.0;;;12.05;72.63
68376;BME280;55318;52.068;5.188;2023-02-13T08:55:41;103781.0;;;12.01;72.87
68376;BME280;55318;52.068;5.188;2023-02-13T08:57:17;103781.0;;;12.09;72.97
68376;BME280;55318;52.068;5.188;2023-02-13T08:58:54;103781.0;;;12.05;72.27
68376;BME280;55318;52.068;5.188;2023-02-13T09:00:30;103788.00000000001;;;12.21;72.25
68376;BME280;55318;52.068;5.188;2023-02-13T09:03:49;103781.0;;;12.13;72.58
68376;BME280;55318;52.068;5.188;2023-02-13T09:05:25;103790.00000000001;;;12.23;72.97
68376;BME280;55318;52.068;5.188;2023-02-13T09:07:02;103789.00000000001;;;12.23;72.27
68376;BME280;55318;52.068;5.188;2023-02-13T09:10:16;103789.00000000001;;;12.01;72.36
68376;BME280;55318;52.068;5.188;2023-02-13T09:11:55;103792.0;;;12.2;72.64
68376;BME280;55318;52.068;5.188;2023-02-13T09:13:34;103795.0;;;12.09;72.69
68376;BME280;55318;52.068;5.188;2023-02-13T09:18:23;103792.0;;;12.25;73.09
68376;BME280;55318;52.068;5.188;2023-02-13T09:19:59;103792.0;;;12.15;72.36
68376;BME280;55318;52.068;5.188;2023-02-13T09:21:35;103791.00000000001;;;12.19;72.73
68376;BME280;55318;52.068;5.188;2023-02-13T09:24:48;103793.0;;;12.24;72.17
68376;BME280;55318;52.068;5.188;2023-02-13T09:26:24;103792.0;;;12.44;72.69
68376;BME280;55318;52.068;5.188;2023-02-13T09:28:00;103793.0;;;12.33;71.97
68376;BME280;55318;52.068;5.188;2023-02-13T09:31:16;103791.00000000001;;;12.47;71.37
68376;BME280;55318;52.068;5.188;2023-02-13T09:32:53;103788.00000000001;;;12.64;71.05
68376;BME280;55318;52.068;5.188;2023-02-13T09:34:30;103783.99999999999;;;12.61;70.34
68376;BME280;55318;52.068;5.188;2023-02-13T09:36:08;103798.0;;;12.55;70.52
68376;BME280;55318;52.068;5.188;2023-02-13T09:39:22;103796.0;;;12.56;70.77
68376;BME280;55318;52.068;5.188;2023-02-13T09:41:01;103794.0;;;12.44;71.44
68376;BME280;55318;52.068;5.188;2023-02-13T09:42:38;103789.00000000001;;;12.21;71.72
68376;BME280;55318;52.068;5.188;2023-02-13T09:46:16;103797.0;;;12.23;71.89
68376;BME280;55318;52.068;5.188;2023-02-13T09:47:55;103794.0;;;12.27;72.41
68376;BME280;55318;52.068;5.188;2023-02-13T09:49:35;103792.0;;;11.97;71.63
68376;BME280;55318;52.068;5.188;2023-02-13T09:51:15;103789.00000000001;;;12.08;72.33
68376;BME280;55318;52.068;5.188;2023-02-13T09:52:54;103789.00000000001;;;12.12;72.16
68376;BME280;55318;52.068;5.188;2023-02-13T09:56:12;103783.99999999999;;;12.18;71.87
68376;BME280;55318;52.068;5.188;2023-02-13T09:57:55;103788.00000000001;;;12.18;71.47
68376;BME280;55318;52.068;5.188;2023-02-13T09:59:45;103784.99999999999;;;12.18;71.81
68376;BME280;55318;52.068;5.188;2023-02-13T10:01:28;103783.0;;;12.18;71.77
68376;BME280;55318;52.068;5.188;2023-02-13T10:05:16;103783.99999999999;;;12.1;71.95
68376;BME280;55318;52.068;5.188;2023-02-13T10:07:07;103783.99999999999;;;12.11;71.87
68376;BME280;55318;52.068;5.188;2023-02-13T10:08:58;103786.99999999999;;;12.23;72.08
68376;BME280;55318;52.068;5.188;2023-02-13T10:10:50;103782.0;;;12.07;72.11
68376;BME280;55318;52.068;5.188;2023-02-13T10:12:42;103788.00000000001;;;12.21;71.97
68376;BME280;55318;52.068;5.188;2023-02-13T10:14:25;103786.99999999999;;;12.29;72.11
68376;BME280;55318;52.068;5.188;2023-02-13T10:16:09;103783.99999999999;;;12.13;72.27
68376;BME280;55318;52.068;5.188;2023-02-13T10:19:36;103784.99999999999;;;12.23;72.11
68376;BME280;55318;52.068;5.188;2023-02-13T10:21:19;103783.0;;;12.2;71.89
68376;BME280;55318;52.068;5.188;2023-02-13T10:23:01;103788.00000000001;;;12.29;72.48
68376;BME280;55318;52.068;5.188;2023-02-13T10:24:47;103784.99999999999;;;12.17;72.41
68376;BME280;55318;52.068;5.188;2023-02-13T10:26:43;103786.99999999999;;;12.08;73.14
68376;BME280;55318;52.068;5.188;2023-02-13T10:28:33;103788.00000000001;;;12.02;72.63
68376;BME280;55318;52.068;5.188;2023-02-13T10:31:58;103781.0;;;11.97;73.12
68376;BME280;55318;52.068;5.188;2023-02-13T10:33:42;103780.0;;;11.84;73.12
68376;BME280;55318;52.068;5.188;2023-02-13T10:35:26;103769.0;;;11.73;73.53
68376;BME280;55318;52.068;5.188;2023-02-13T10:37:10;103776.0;;;11.77;74.05
68376;BME280;55318;52.068;5.188;2023-02-13T10:38:55;103777.0;;;11.77;73.5
68376;BME280;55318;52.068;5.188;2023-02-13T10:42:28;103775.0;;;11.81;73.81
68376;BME280;55318;52.068;5.188;2023-02-13T10:44:22;103771.0;;;11.8;73.24
68376;BME280;55318;52.068;5.188;2023-02-13T10:46:12;103769.0;;;11.7;73.87
68376;BME280;55318;52.068;5.188;2023-02-13T10:48:04;103767.0;;;11.79;73.8
68376;BME280;55318;52.068;5.188;2023-02-13T10:49:59;103767.0;;;11.85;73.69
68376;BME280;55318;52.068;5.188;2023-02-13T10:51:42;103771.0;;;11.89;73.48
68376;BME280;55318;52.068;5.188;2023-02-13T10:55:29;103767.0;;;11.9;73.24
68376;BME280;55318;52.068;5.188;2023-02-13T10:57:15;103763.00000000001;;;11.94;72.8
68376;BME280;55318;52.068;5.188;2023-02-13T10:59:10;103764.00000000001;;;12.02;72.86
68376;BME280;55318;52.068;5.188;2023-02-13T11:00:56;103767.0;;;12.02;72.52
68376;BME280;55318;52.068;5.188;2023-02-13T11:02:36;103767.0;;;12.04;72.66
68376;BME280;55318;52.068;5.188;2023-02-13T11:04:16;103765.00000000001;;;11.88;72.31
68376;BME280;55318;52.068;5.188;2023-02-13T11:07:33;103765.00000000001;;;11.9;72.62
68376;BME280;55318;52.068;5.188;2023-02-13T11:09:12;103763.00000000001;;;11.96;72.77
68376;BME280;55318;52.068;5.188;2023-02-13T11:10:48;103759.99999999999;;;11.89;72.48
68376;BME280;55318;52.068;5.188;2023-02-13T11:12:29;103767.0;;;11.94;72.59
68376;BME280;55318;52.068;5.188;2023-02-13T11:15:57;103764.00000000001;;;12.01;72.48
68376;BME280;55318;52.068;5.188;2023-02-13T11:17:38;103758.0;;;12.02;72.27
68376;BME280;55318;52.068;5.188;2023-02-13T11:19:19;103758.99999999999;;;12.09;72.37
68376;BME280;55318;52.068;5.188;2023-02-13T11:21:00;103758.0;;;11.9;72.58
68376;BME280;55318;52.068;5.188;2023-02-13T11:24:18;103755.0;;;11.93;71.99
68376;BME280;55318;52.068;5.188;2023-02-13T11:25:58;103757.0;;;12.12;71.66
68376;BME280;55318;52.068;5.188;2023-02-13T11:27:37;103753.0;;;12.3;71.83